createdAt,value
2022-08-21T00:02:02.144Z,21.25
2022-08-21T00:04:29.524Z,21.35
2022-08-21T00:06:58.034Z,20.83
2022-08-21T00:09:24.465Z,25.25
2022-08-21T00:11:50.995Z,18.55
2022-08-21T00:14:17.817Z,24.80
2022-08-21T00:16:44.345Z,20.90
2022-08-21T00:19:11.118Z,22.08
2022-08-21T00:21:37.746Z,18.83
2022-08-21T00:24:04.727Z,19.98
2022-08-21T00:26:31.195Z,21.67
2022-08-21T00:28:58.402Z,19.13
2022-08-21T00:31:25.898Z,20.58
2022-08-21T00:33:52.603Z,22.70
2022-08-21T00:36:24.427Z,23.23
2022-08-21T00:38:50.878Z,20.23
2022-08-21T00:41:36.289Z,19.45
2022-08-21T00:44:04.891Z,23.40
2022-08-21T00:46:31.686Z,18.73
2022-08-21T00:48:59.418Z,20.35
2022-08-21T00:51:40.927Z,19.08
2022-08-21T00:54:12.942Z,19.13
2022-08-21T00:56:48.408Z,19.45
2022-08-21T00:59:15.628Z,18.88
2022-08-21T01:01:42.054Z,19.05
2022-08-21T01:04:08.611Z,20.08
2022-08-21T01:06:36.083Z,19.75
2022-08-21T01:09:03.722Z,19.20
2022-08-21T01:11:30.827Z,20.70
2022-08-21T01:13:57.421Z,19.75
2022-08-21T01:16:24.469Z,22.35
2022-08-21T01:18:52.140Z,22.67
2022-08-21T01:21:28.675Z,22.45
2022-08-21T01:23:57.473Z,22.23
2022-08-21T01:26:34.150Z,20.77
2022-08-21T01:29:10.968Z,22.00
2022-08-21T01:31:38.118Z,21.70
2022-08-21T01:34:05.821Z,20.92
2022-08-21T01:36:32.579Z,20.27
2022-08-21T01:38:59.255Z,20.70
2022-08-21T01:41:25.814Z,20.48
2022-08-21T01:43:52.284Z,19.88
2022-08-21T01:46:19.312Z,21.05
2022-08-21T01:48:45.807Z,23.25
2022-08-21T01:51:12.972Z,20.73
2022-08-21T01:53:40.347Z,20.73
2022-08-21T01:56:12.719Z,19.35
2022-08-21T01:58:42.394Z,20.35
2022-08-21T02:01:10.326Z,19.42
2022-08-21T02:03:37.707Z,19.05
2022-08-21T02:06:07.729Z,21.17
2022-08-21T02:08:34.965Z,19.33
2022-08-21T02:11:01.671Z,19.35
2022-08-21T02:13:28.075Z,20.02
2022-08-21T02:15:54.522Z,20.25
2022-08-21T02:18:21.177Z,20.08
2022-08-21T02:20:56.026Z,20.05
2022-08-21T02:23:26.640Z,19.95
2022-08-21T02:25:57.939Z,20.92
2022-08-21T02:28:24.618Z,20.08
2022-08-21T02:30:53.486Z,22.92
2022-08-21T02:33:20.492Z,20.45
2022-08-21T02:35:48.159Z,21.45
2022-08-21T02:38:18.520Z,20.00
2022-08-21T02:43:16.485Z,19.42
2022-08-21T02:45:44.624Z,20.05
2022-08-21T02:48:14.630Z,21.10
2022-08-21T02:50:44.279Z,19.90
2022-08-21T02:53:15.324Z,22.73
2022-08-21T02:55:41.796Z,20.05
2022-08-21T02:58:09.138Z,19.60
2022-08-21T03:00:37.697Z,19.63
2022-08-21T03:03:05.788Z,19.40
2022-08-21T03:05:33.872Z,20.25
2022-08-21T03:08:02.790Z,20.02
2022-08-21T03:10:30.048Z,20.60
2022-08-21T03:12:56.627Z,27.13
2022-08-21T03:15:25.706Z,18.40
2022-08-21T03:17:55.335Z,19.60
2022-08-21T03:20:24.858Z,18.63
2022-08-21T03:22:53.279Z,18.58
2022-08-21T03:25:28.349Z,19.52
2022-08-21T03:28:12.876Z,18.13
2022-08-21T03:30:45.427Z,19.33
2022-08-21T03:33:14.990Z,19.80
2022-08-21T03:35:44.173Z,19.60
2022-08-21T03:38:11.311Z,19.95
2022-08-21T03:40:37.853Z,23.35
2022-08-21T03:43:04.312Z,20.13
2022-08-21T03:45:30.831Z,20.70
2022-08-21T03:47:58.985Z,22.33
2022-08-21T03:50:28.011Z,20.88
2022-08-21T03:52:54.561Z,20.55
2022-08-21T03:55:21.190Z,21.92
2022-08-21T03:57:47.807Z,21.65
2022-08-21T04:00:16.158Z,20.60
2022-08-21T04:02:44.618Z,20.58
2022-08-21T04:05:13.589Z,20.55
2022-08-21T04:07:42.951Z,21.88
2022-08-21T04:10:09.792Z,21.17
2022-08-21T04:12:36.399Z,21.27
2022-08-21T04:15:03.146Z,22.00
2022-08-21T04:17:29.617Z,22.45
2022-08-21T04:19:56.197Z,21.77
2022-08-21T04:22:23.207Z,21.30
2022-08-21T04:24:49.778Z,21.45
2022-08-21T04:27:16.206Z,21.98
2022-08-21T04:29:42.629Z,21.02
2022-08-21T04:32:09.212Z,20.88
2022-08-21T04:34:35.682Z,20.90
2022-08-21T04:37:02.110Z,20.40
2022-08-21T04:39:29.718Z,21.60
2022-08-21T04:41:56.523Z,21.67
2022-08-21T04:44:22.942Z,22.10
2022-08-21T04:46:49.357Z,21.80
2022-08-21T04:49:15.834Z,22.27
2022-08-21T04:51:42.516Z,21.65
2022-08-21T04:54:13.319Z,22.80
2022-08-21T04:56:48.157Z,20.88
2022-08-21T04:59:25.228Z,20.55
2022-08-21T05:01:52.703Z,21.48
2022-08-21T05:04:23.399Z,23.88
2022-08-21T05:06:52.380Z,20.17
2022-08-21T05:09:20.375Z,18.77
2022-08-21T05:11:47.271Z,19.08
2022-08-21T05:14:13.999Z,18.40
2022-08-21T05:16:41.533Z,18.40
2022-08-21T05:19:08.290Z,19.13
2022-08-21T05:21:36.076Z,18.80
2022-08-21T05:24:03.114Z,18.00
2022-08-21T05:26:29.555Z,18.23
2022-08-21T05:28:57.383Z,17.65
2022-08-21T05:31:24.117Z,17.48
2022-08-21T05:33:50.747Z,18.90
2022-08-21T05:36:19.416Z,16.40
2022-08-21T05:38:46.846Z,18.15
2022-08-21T05:41:13.579Z,14.65
2022-08-21T05:43:40.316Z,14.63
2022-08-21T05:46:08.615Z,15.07
2022-08-21T05:48:36.614Z,15.05
2022-08-21T05:51:12.185Z,13.77
2022-08-21T05:53:39.398Z,13.82
2022-08-21T05:56:06.340Z,18.38
2022-08-21T05:58:34.128Z,13.40
2022-08-21T06:01:03.116Z,15.18
2022-08-21T06:03:32.902Z,15.63
2022-08-21T06:05:59.699Z,13.43
2022-08-21T06:08:27.108Z,12.40
2022-08-21T06:10:55.720Z,14.00
2022-08-21T06:13:23.310Z,16.25
2022-08-21T06:15:51.186Z,15.38
2022-08-21T06:18:17.752Z,12.32
2022-08-21T06:20:45.060Z,11.93
2022-08-21T06:23:11.578Z,13.73
2022-08-21T06:25:37.985Z,12.48
2022-08-21T06:28:07.492Z,11.68
2022-08-21T06:30:34.950Z,12.75
2022-08-21T06:33:02.440Z,12.02
2022-08-21T06:35:30.072Z,12.63
2022-08-21T06:37:58.139Z,13.32
2022-08-21T06:40:25.089Z,15.38
2022-08-21T06:42:51.596Z,11.85
2022-08-21T06:45:18.422Z,9.70
2022-08-21T06:47:44.858Z,9.02
2022-08-21T06:50:11.510Z,13.18
2022-08-21T06:52:38.538Z,12.48
2022-08-21T06:55:07.574Z,9.38
2022-08-21T06:57:34.591Z,9.27
2022-08-21T07:00:01.186Z,9.32
2022-08-21T07:02:27.665Z,9.25
2022-08-21T07:04:54.191Z,11.27
2022-08-21T07:07:20.599Z,11.02
2022-08-21T07:09:47.031Z,15.80
2022-08-21T07:12:13.912Z,10.05
2022-08-21T07:14:40.427Z,10.27
2022-08-21T07:17:06.892Z,12.38
2022-08-21T07:19:33.371Z,9.77
2022-08-21T07:22:03.092Z,10.13
2022-08-21T07:24:30.188Z,14.82
2022-08-21T07:26:56.654Z,9.32
2022-08-21T07:29:23.089Z,10.82
2022-08-21T07:31:49.546Z,9.10
2022-08-21T07:34:17.225Z,10.38
2022-08-21T07:36:43.733Z,9.90
2022-08-21T07:39:10.402Z,11.02
2022-08-21T07:41:37.131Z,11.75
2022-08-21T07:44:04.083Z,15.18
2022-08-21T07:46:33.163Z,12.02
2022-08-21T07:48:59.638Z,10.65
2022-08-21T07:51:28.654Z,13.00
2022-08-21T07:53:58.678Z,8.38
2022-08-21T07:58:51.790Z,11.52
2022-08-21T08:01:18.507Z,9.82
2022-08-21T08:03:46.095Z,8.77
2022-08-21T08:06:17.598Z,12.05
2022-08-21T08:08:44.127Z,9.10
2022-08-21T08:11:11.965Z,10.68
2022-08-21T08:13:44.450Z,9.05
2022-08-21T08:16:11.181Z,10.02
2022-08-21T08:18:38.344Z,13.40
2022-08-21T08:21:05.989Z,10.23
2022-08-21T08:23:33.397Z,13.13
2022-08-21T08:26:00.148Z,13.95
2022-08-21T08:28:28.098Z,12.80
2022-08-21T08:30:54.569Z,10.00
2022-08-21T08:33:21.258Z,13.70
2022-08-21T08:35:50.304Z,16.15
2022-08-21T08:38:20.917Z,13.73
2022-08-21T08:41:19.853Z,10.70
2022-08-21T08:43:54.442Z,9.68
2022-08-21T08:46:31.575Z,12.43
2022-08-21T08:49:04.099Z,8.68
2022-08-21T08:51:55.860Z,16.23
2022-08-21T08:54:42.505Z,11.40
2022-08-21T08:57:16.874Z,15.65
2022-08-21T08:59:49.263Z,14.15
2022-08-21T09:02:17.685Z,12.57
2022-08-21T09:04:47.689Z,9.85
2022-08-21T09:10:29.026Z,13.15
2022-08-21T09:13:10.354Z,16.88
2022-08-21T09:15:55.555Z,10.23
2022-08-21T09:18:28.497Z,12.32
2022-08-21T09:21:14.491Z,17.70
2022-08-21T09:23:56.344Z,12.23
2022-08-21T09:26:40.726Z,16.35
2022-08-21T09:29:11.612Z,16.05
2022-08-21T09:31:39.234Z,10.82
2022-08-21T09:34:09.705Z,14.80
2022-08-21T09:36:43.975Z,11.10
2022-08-21T09:39:13.439Z,14.18
2022-08-21T09:41:41.114Z,13.77
2022-08-21T09:44:09.492Z,12.77
2022-08-21T09:46:37.305Z,12.32
2022-08-21T09:49:06.870Z,14.00
2022-08-21T09:51:52.415Z,15.40
2022-08-21T09:54:22.525Z,10.80
2022-08-21T09:57:20.059Z,13.13
2022-08-21T09:59:47.823Z,12.57
2022-08-21T10:02:32.244Z,11.63
2022-08-21T10:05:03.778Z,10.80
2022-08-21T10:07:32.906Z,12.35
2022-08-21T10:10:05.332Z,10.65
2022-08-21T10:13:13.015Z,17.88
2022-08-21T10:16:05.747Z,10.23
2022-08-21T10:18:43.370Z,12.90
2022-08-21T10:21:24.614Z,12.60
2022-08-21T10:24:24.006Z,8.68
2022-08-21T10:27:19.592Z,13.57
2022-08-21T10:30:02.416Z,11.77
2022-08-21T10:32:44.550Z,9.95
2022-08-21T10:35:15.405Z,10.07
2022-08-21T10:37:50.951Z,13.93
2022-08-21T10:40:37.898Z,11.45
2022-08-21T10:43:39.271Z,10.18
2022-08-21T10:46:11.805Z,9.98
2022-08-21T10:48:44.075Z,11.57
2022-08-21T10:51:51.215Z,10.32
2022-08-21T10:54:45.564Z,9.20
2022-08-21T10:57:32.368Z,8.43
2022-08-21T11:00:12.763Z,9.35
2022-08-21T11:02:57.542Z,8.45
2022-08-21T11:05:36.263Z,11.63
2022-08-21T11:08:09.524Z,10.90
2022-08-21T11:10:59.331Z,10.32
2022-08-21T11:13:41.408Z,9.45
2022-08-21T11:16:27.117Z,8.05
2022-08-21T11:19:01.889Z,9.18
2022-08-21T11:21:31.977Z,9.10
2022-08-21T11:24:10.736Z,11.80
2022-08-21T11:26:43.976Z,8.90
2022-08-21T11:29:18.620Z,10.00
2022-08-21T11:32:03.858Z,8.48
2022-08-21T11:34:58.318Z,8.57
2022-08-21T11:37:51.202Z,8.00
2022-08-21T11:40:38.774Z,9.02
2022-08-21T11:43:35.810Z,12.18
2022-08-21T11:46:19.907Z,10.77
2022-08-21T11:48:49.161Z,7.32
2022-08-21T11:51:34.395Z,10.50
2022-08-21T11:54:11.885Z,8.00
2022-08-21T11:56:44.311Z,8.20
2022-08-21T11:59:17.670Z,11.95
2022-08-21T12:01:46.672Z,9.05
2022-08-21T12:04:30.273Z,10.77
2022-08-21T12:06:57.370Z,6.75
2022-08-21T12:09:26.582Z,8.98
2022-08-21T12:12:23.507Z,7.00
2022-08-21T12:14:52.535Z,8.90
2022-08-21T12:17:27.616Z,6.90
2022-08-21T12:20:15.585Z,14.45
2022-08-21T12:22:42.604Z,9.68
2022-08-21T12:25:19.652Z,7.78
2022-08-21T12:27:52.514Z,10.05
2022-08-21T12:30:37.515Z,7.78
2022-08-21T12:33:18.969Z,7.13
2022-08-21T12:35:46.631Z,7.50
2022-08-21T12:38:33.350Z,9.77
2022-08-21T12:41:16.122Z,7.53
2022-08-21T12:43:52.588Z,7.57
2022-08-21T12:46:23.290Z,7.22
2022-08-21T12:48:55.719Z,6.93
2022-08-21T12:51:34.446Z,6.32
2022-08-21T12:54:01.292Z,6.70
2022-08-21T12:56:32.385Z,7.80
2022-08-21T12:59:05.236Z,7.57
2022-08-21T13:01:41.999Z,7.88
2022-08-21T13:04:14.935Z,7.95
2022-08-21T13:06:45.901Z,6.43
2022-08-21T13:09:16.352Z,6.85
2022-08-21T13:11:46.392Z,7.38
2022-08-21T13:14:33.022Z,7.63
2022-08-21T13:17:01.336Z,6.80
2022-08-21T13:19:30.423Z,6.95
2022-08-21T13:21:57.294Z,7.18
2022-08-21T13:24:44.185Z,7.47
2022-08-21T13:27:27.804Z,8.82
2022-08-21T13:30:03.414Z,9.15
2022-08-21T13:32:32.689Z,6.80
2022-08-21T13:35:00.858Z,6.93
2022-08-21T13:37:29.926Z,7.05
2022-08-21T13:39:56.731Z,6.72
2022-08-21T13:42:24.985Z,7.97
2022-08-21T13:44:53.625Z,6.57
2022-08-21T13:47:20.419Z,6.60
2022-08-21T13:49:48.671Z,7.78
2022-08-21T13:52:20.244Z,7.55
2022-08-21T13:54:55.930Z,7.03
2022-08-21T13:57:29.736Z,7.30
2022-08-21T14:00:14.911Z,7.00
2022-08-21T14:02:44.284Z,7.30
2022-08-21T14:05:22.892Z,6.75
2022-08-21T14:07:51.920Z,7.80
2022-08-21T14:10:22.986Z,7.50
2022-08-21T14:12:53.630Z,7.40
2022-08-21T14:15:25.947Z,6.80
2022-08-21T14:17:52.673Z,7.82
2022-08-21T14:20:31.759Z,8.10
2022-08-21T14:22:58.473Z,7.43
2022-08-21T14:25:25.421Z,9.18
2022-08-21T14:28:13.842Z,7.50
2022-08-21T14:30:44.849Z,7.22
2022-08-21T14:33:15.229Z,8.75
2022-08-21T14:35:42.677Z,7.47
2022-08-21T14:38:22.573Z,7.68
2022-08-21T14:40:58.712Z,7.60
2022-08-21T14:43:27.453Z,7.63
2022-08-21T14:45:54.801Z,7.07
2022-08-21T14:48:21.220Z,7.05
2022-08-21T14:50:48.358Z,6.45
2022-08-21T14:53:14.852Z,8.27
2022-08-21T14:55:59.942Z,7.00
2022-08-21T14:58:26.909Z,7.57
2022-08-21T15:00:54.915Z,7.10
2022-08-21T15:03:22.843Z,9.18
2022-08-21T15:05:50.066Z,7.28
2022-08-21T15:08:17.067Z,6.80
2022-08-21T15:11:08.243Z,7.85
2022-08-21T15:13:31.721Z,7.55
2022-08-21T15:15:59.150Z,7.43
2022-08-21T15:18:29.020Z,8.82
2022-08-21T15:20:55.569Z,7.05
2022-08-21T15:23:22.642Z,6.70
2022-08-21T15:25:50.301Z,7.10
2022-08-21T15:28:18.999Z,6.53
2022-08-21T15:30:46.235Z,6.90
2022-08-21T15:33:12.851Z,7.53
2022-08-21T15:35:41.201Z,6.93
2022-08-21T15:38:11.196Z,6.85
2022-08-21T15:40:39.393Z,6.63
2022-08-21T15:43:29.915Z,7.53
2022-08-21T15:45:59.221Z,7.75
2022-08-21T15:48:25.732Z,6.43
2022-08-21T15:50:52.135Z,9.88
2022-08-21T15:53:18.738Z,7.72
2022-08-21T15:55:45.246Z,9.65
2022-08-21T15:58:16.626Z,9.43
2022-08-21T16:00:45.116Z,7.57
2022-08-21T16:03:17.621Z,8.25
2022-08-21T16:05:49.537Z,9.40
2022-08-21T16:08:16.085Z,9.63
2022-08-21T16:10:42.677Z,7.45
2022-08-21T16:13:20.988Z,6.93
2022-08-21T16:15:47.425Z,7.40
2022-08-21T16:18:14.181Z,7.80
2022-08-21T16:20:41.052Z,6.78
2022-08-21T16:23:07.602Z,13.32
2022-08-21T16:25:37.852Z,7.10
2022-08-21T16:28:09.372Z,6.70
2022-08-21T16:30:38.782Z,7.00
2022-08-21T16:33:06.762Z,6.78
2022-08-21T16:35:33.398Z,7.50
2022-08-21T16:37:59.873Z,7.10
2022-08-21T16:40:27.731Z,6.75
2022-08-21T16:42:54.436Z,7.38
2022-08-21T16:45:21.880Z,7.68
2022-08-21T16:47:48.562Z,8.38
2022-08-21T16:50:19.385Z,7.30
2022-08-21T16:52:45.813Z,7.57
2022-08-21T16:55:12.390Z,7.90
2022-08-21T16:57:38.963Z,8.43
2022-08-21T17:00:14.039Z,7.93
2022-08-21T17:02:45.441Z,8.48
2022-08-21T17:05:12.899Z,9.63
2022-08-21T17:07:41.514Z,8.73
2022-08-21T17:10:09.494Z,8.65
2022-08-21T17:12:36.705Z,8.35
2022-08-21T17:15:13.250Z,9.98
2022-08-21T17:17:39.730Z,9.18
2022-08-21T17:20:06.860Z,8.02
2022-08-21T17:22:33.398Z,8.52
2022-08-21T17:24:59.920Z,8.68
2022-08-21T17:27:28.173Z,8.80
2022-08-21T17:29:56.040Z,8.07
2022-08-21T17:32:23.229Z,10.10
2022-08-21T17:34:49.708Z,9.63
2022-08-21T17:37:16.571Z,8.60
2022-08-21T17:39:43.243Z,7.80
2022-08-21T17:42:13.605Z,9.25
2022-08-21T17:44:43.565Z,8.18
2022-08-21T17:49:37.568Z,8.20
2022-08-21T17:52:04.736Z,11.95
2022-08-21T17:54:31.248Z,11.95
2022-08-21T17:56:58.206Z,8.95
2022-08-21T17:59:24.908Z,12.55
2022-08-21T18:01:51.433Z,11.43
2022-08-21T18:04:18.098Z,12.52
2022-08-21T18:06:45.146Z,9.02
2022-08-21T18:09:12.828Z,14.00
2022-08-21T18:11:41.899Z,14.55
2022-08-21T18:14:10.383Z,11.40
2022-08-21T18:16:37.793Z,14.02
2022-08-21T18:19:15.815Z,11.00
2022-08-21T18:21:42.389Z,17.52
2022-08-21T18:24:08.914Z,11.30
2022-08-21T18:26:39.344Z,12.07
2022-08-21T18:29:08.664Z,10.40
2022-08-21T18:31:38.025Z,13.80
2022-08-21T18:34:17.017Z,17.73
2022-08-21T18:36:46.046Z,11.68
2022-08-21T18:39:34.974Z,15.82
2022-08-21T18:42:02.461Z,14.45
2022-08-21T18:44:30.304Z,12.48
2022-08-21T18:47:07.367Z,13.27
2022-08-21T18:49:34.355Z,15.00
2022-08-21T18:52:00.828Z,14.52
2022-08-21T18:54:29.817Z,14.68
2022-08-21T18:56:56.454Z,14.65
2022-08-21T18:59:26.889Z,13.23
2022-08-21T19:01:54.325Z,15.98
2022-08-21T19:04:42.962Z,16.92
2022-08-21T19:07:07.551Z,12.75
2022-08-21T19:09:33.961Z,14.40
2022-08-21T19:12:00.521Z,12.15
2022-08-21T19:14:28.284Z,15.13
2022-08-21T19:16:54.897Z,14.50
2022-08-21T19:19:21.377Z,16.90
2022-08-21T19:21:49.451Z,13.75
2022-08-21T19:27:02.736Z,11.45
2022-08-21T19:29:35.026Z,12.57
2022-08-21T19:32:15.682Z,14.57
2022-08-21T19:34:44.721Z,10.25
2022-08-21T19:37:16.196Z,15.75
2022-08-21T19:39:48.601Z,17.83
2022-08-21T19:42:17.225Z,12.63
2022-08-21T19:44:45.241Z,13.73
2022-08-21T19:47:19.156Z,18.35
2022-08-21T19:49:54.314Z,15.70
2022-08-21T19:52:21.906Z,15.80
2022-08-21T19:54:48.915Z,16.98
2022-08-21T19:57:16.507Z,16.25
2022-08-21T19:59:43.532Z,18.13
2022-08-21T20:02:12.122Z,13.93
2022-08-21T20:04:38.922Z,14.95
2022-08-21T20:07:26.513Z,18.50
2022-08-21T20:09:54.058Z,13.77
2022-08-21T20:12:20.539Z,15.90
2022-08-21T20:14:47.803Z,17.58
2022-08-21T20:17:17.467Z,16.23
2022-08-21T20:19:45.131Z,11.93
2022-08-21T20:22:12.122Z,13.75
2022-08-21T20:24:39.564Z,12.57
2022-08-21T20:27:10.319Z,15.50
2022-08-21T20:29:39.366Z,19.37
2022-08-21T20:32:07.942Z,15.90
2022-08-21T20:34:39.402Z,11.63
2022-08-21T20:37:05.911Z,16.73
2022-08-21T20:39:32.357Z,13.48
2022-08-21T20:41:58.895Z,11.23
2022-08-21T20:44:30.953Z,15.10
2022-08-21T20:46:59.138Z,13.82
2022-08-21T20:49:31.789Z,15.02
2022-08-21T20:52:00.870Z,20.67
2022-08-21T20:54:56.170Z,23.52
2022-08-21T20:57:51.113Z,18.02
2022-08-21T21:00:21.173Z,17.38
2022-08-21T21:03:01.708Z,18.67
2022-08-21T21:05:36.542Z,16.05
2022-08-21T21:08:25.217Z,12.57
2022-08-21T21:10:58.080Z,18.58
2022-08-21T21:13:33.949Z,13.75
2022-08-21T21:16:08.501Z,17.83
2022-08-21T21:18:42.905Z,14.55
2022-08-21T21:21:32.970Z,14.73
2022-08-21T21:24:12.094Z,21.70
2022-08-21T21:26:48.720Z,17.67
2022-08-21T21:29:30.036Z,14.93
2022-08-21T21:31:56.886Z,15.57
2022-08-21T21:34:26.725Z,19.95
2022-08-21T21:37:05.858Z,11.93
2022-08-21T21:39:50.746Z,16.35
2022-08-21T21:42:41.545Z,18.85
2022-08-21T21:45:23.600Z,16.80
2022-08-21T21:48:03.578Z,14.82
2022-08-21T21:51:01.131Z,15.85
2022-08-21T21:53:55.330Z,16.83
2022-08-21T21:57:10.013Z,16.02
2022-08-21T22:00:01.271Z,16.70
2022-08-21T22:02:30.745Z,12.48
2022-08-21T22:05:18.201Z,19.88
2022-08-21T22:07:54.917Z,14.50
2022-08-21T22:13:26.564Z,11.90
2022-08-21T22:15:54.493Z,18.55
2022-08-21T22:18:26.987Z,16.17
2022-08-21T22:21:11.956Z,15.35
2022-08-21T22:23:44.901Z,15.93
2022-08-21T22:26:16.755Z,13.40
2022-08-21T22:28:47.398Z,18.23
2022-08-21T22:31:21.814Z,14.52
2022-08-21T22:34:02.384Z,16.20
2022-08-21T22:36:35.713Z,17.08
2022-08-21T22:39:11.939Z,14.60
2022-08-21T22:41:44.075Z,14.85
2022-08-21T22:44:27.460Z,16.98
2022-08-21T22:46:57.089Z,16.40
2022-08-21T22:49:35.355Z,18.42
2022-08-21T22:52:08.007Z,17.17
2022-08-21T22:54:45.183Z,15.98
2022-08-21T22:57:21.784Z,18.02
2022-08-21T23:00:00.636Z,15.70
2022-08-21T23:02:43.528Z,18.55
2022-08-21T23:05:34.688Z,17.23
2022-08-21T23:08:46.318Z,14.82
2022-08-21T23:11:20.895Z,15.43
2022-08-21T23:13:52.630Z,12.48
2022-08-21T23:16:25.053Z,8.57
2022-08-21T23:18:51.956Z,14.77
2022-08-21T23:21:57.743Z,18.65
2022-08-21T23:24:33.559Z,15.77
2022-08-21T23:27:18.729Z,13.35
2022-08-21T23:30:03.282Z,13.45
2022-08-21T23:32:52.546Z,14.73
2022-08-21T23:35:59.634Z,16.73
2022-08-21T23:38:51.316Z,14.38
2022-08-21T23:41:44.190Z,16.65
2022-08-21T23:44:33.136Z,13.55
2022-08-21T23:47:14.495Z,18.05
2022-08-21T23:49:47.700Z,10.45
2022-08-21T23:52:19.842Z,11.80
2022-08-21T23:54:52.392Z,12.82
2022-08-21T23:57:39.398Z,14.50
